createdAt,value
2023-03-16T00:01:08.986Z,0.73
2023-03-16T00:04:38.073Z,0.77
2023-03-16T00:08:04.357Z,0.82
2023-03-16T00:11:31.469Z,0.87
2023-03-16T00:14:59.384Z,0.90
2023-03-16T00:18:28.530Z,0.89
2023-03-16T00:21:56.088Z,0.85
2023-03-16T00:25:24.539Z,0.80
2023-03-16T00:28:54.612Z,0.75
2023-03-16T00:32:23.934Z,0.69
2023-03-16T00:35:51.145Z,0.61
2023-03-16T00:39:17.649Z,0.54
2023-03-16T00:42:44.483Z,0.48
2023-03-16T00:46:12.086Z,0.42
2023-03-16T00:49:39.718Z,0.38
2023-03-16T00:53:06.651Z,0.34
2023-03-16T00:56:34.453Z,0.29
2023-03-16T01:00:02.627Z,0.24
2023-03-16T01:03:29.260Z,0.19
2023-03-16T01:06:55.777Z,0.15
2023-03-16T01:10:22.373Z,0.08
2023-03-16T01:13:50.059Z,0.06
2023-03-16T01:17:18.171Z,0.07
2023-03-16T01:20:51.183Z,0.09
2023-03-16T01:24:18.230Z,0.13
2023-03-16T01:27:44.750Z,0.17
2023-03-16T01:31:14.660Z,0.22
2023-03-16T01:34:41.759Z,0.28
2023-03-16T01:38:09.396Z,0.35
2023-03-16T01:41:37.194Z,0.38
2023-03-16T01:45:06.127Z,0.39
2023-03-16T01:48:38.525Z,0.40
2023-03-16T01:52:08.701Z,0.36
2023-03-16T01:55:35.236Z,0.32
2023-03-16T01:59:07.337Z,0.27
2023-03-16T02:02:34.404Z,0.24
2023-03-16T02:06:06.297Z,0.20
2023-03-16T02:09:35.580Z,0.18
2023-03-16T02:13:03.964Z,0.14
2023-03-16T02:16:30.794Z,0.11
2023-03-16T02:20:11.489Z,0.08
2023-03-16T02:23:38.963Z,0.06
2023-03-16T02:27:10.519Z,0.04
2023-03-16T02:30:38.224Z,0.01
2023-03-16T02:34:05.869Z,-0.02
2023-03-16T02:37:34.156Z,-0.04
2023-03-16T02:41:10.893Z,-0.03
2023-03-16T02:44:40.944Z,-0.04
2023-03-16T02:48:14.867Z,0.01
2023-03-16T02:51:41.651Z,0.06
2023-03-16T02:55:10.141Z,0.11
2023-03-16T02:58:37.457Z,0.20
2023-03-16T03:02:09.189Z,0.25
2023-03-16T03:05:37.248Z,0.31
2023-03-16T03:09:05.076Z,0.36
2023-03-16T03:12:31.825Z,0.40
2023-03-16T03:15:58.205Z,0.41
2023-03-16T03:19:26.268Z,0.38
2023-03-16T03:22:54.000Z,0.34
2023-03-16T03:26:20.682Z,0.30
2023-03-16T03:29:48.073Z,0.26
2023-03-16T03:33:14.810Z,0.21
2023-03-16T03:36:41.689Z,0.15
2023-03-16T03:40:12.024Z,0.12
2023-03-16T03:43:39.141Z,0.08
2023-03-16T03:47:07.808Z,0.01
2023-03-16T03:50:34.352Z,-0.05
2023-03-16T03:54:23.141Z,-0.12
2023-03-16T03:58:03.189Z,-0.15
2023-03-16T04:01:29.892Z,-0.16
2023-03-16T04:04:57.678Z,-0.17
2023-03-16T04:08:23.955Z,-0.15
2023-03-16T04:11:51.172Z,-0.12
2023-03-16T04:15:17.998Z,-0.09
2023-03-16T04:18:54.627Z,-0.04
2023-03-16T04:22:23.544Z,-0.00
2023-03-16T04:25:50.803Z,0.03
2023-03-16T04:29:19.338Z,0.04
2023-03-16T04:32:46.290Z,0.04
2023-03-16T04:36:18.299Z,0.04
2023-03-16T04:39:45.782Z,-0.01
2023-03-16T04:43:13.918Z,-0.11
2023-03-16T04:46:41.608Z,-0.18
2023-03-16T04:50:12.510Z,-0.22
2023-03-16T04:53:40.326Z,-0.27
2023-03-16T04:57:11.990Z,-0.32
2023-03-16T05:00:43.163Z,-0.38
2023-03-16T05:04:19.919Z,-0.43
2023-03-16T05:07:47.799Z,-0.45
2023-03-16T05:11:15.062Z,-0.47
2023-03-16T05:14:46.624Z,-0.50
2023-03-16T05:18:20.357Z,-0.54
2023-03-16T05:21:47.178Z,-0.54
2023-03-16T05:25:15.754Z,-0.53
2023-03-16T05:28:47.241Z,-0.49
2023-03-16T05:32:17.495Z,-0.44
2023-03-16T05:35:45.037Z,-0.36
2023-03-16T05:39:12.020Z,-0.28
2023-03-16T05:42:51.245Z,-0.19
2023-03-16T05:46:20.676Z,-0.13
2023-03-16T05:49:50.351Z,-0.07
2023-03-16T05:53:29.676Z,-0.02
2023-03-16T05:57:01.970Z,0.00
2023-03-16T06:00:30.355Z,-0.00
2023-03-16T06:04:07.566Z,0.03
2023-03-16T06:07:37.546Z,0.01
2023-03-16T06:11:05.402Z,-0.01
2023-03-16T06:14:33.263Z,-0.03
2023-03-16T06:18:00.215Z,-0.05
2023-03-16T06:21:27.023Z,-0.06
2023-03-16T06:24:56.005Z,-0.04
2023-03-16T06:28:23.297Z,-0.02
2023-03-16T06:31:51.616Z,0.00
2023-03-16T06:35:18.412Z,0.06
2023-03-16T06:38:54.464Z,0.13
2023-03-16T06:42:41.645Z,0.20
2023-03-16T06:46:10.410Z,0.28
2023-03-16T06:49:37.981Z,0.39
2023-03-16T06:53:12.382Z,0.49
2023-03-16T06:56:39.436Z,0.58
2023-03-16T07:00:08.577Z,0.72
2023-03-16T07:03:35.586Z,0.85
2023-03-16T07:07:19.549Z,1.00
2023-03-16T07:10:48.057Z,1.13
2023-03-16T07:14:15.860Z,1.33
2023-03-16T07:17:43.458Z,1.50
2023-03-16T07:21:10.174Z,1.60
2023-03-16T07:24:37.698Z,1.66
2023-03-16T07:28:06.324Z,1.76
2023-03-16T07:31:38.453Z,1.82
2023-03-16T07:35:10.603Z,1.90
2023-03-16T07:38:50.403Z,1.98
2023-03-16T07:42:19.253Z,2.02
2023-03-16T07:46:00.396Z,2.04
2023-03-16T07:49:28.073Z,2.07
2023-03-16T07:52:55.315Z,2.14
2023-03-16T07:56:22.893Z,2.19
2023-03-16T07:59:51.987Z,2.31
2023-03-16T08:03:23.114Z,2.45
2023-03-16T08:06:52.710Z,2.53
2023-03-16T08:10:20.594Z,2.62
2023-03-16T08:14:02.099Z,2.75
2023-03-16T08:17:45.985Z,2.87
2023-03-16T08:21:17.702Z,2.91
2023-03-16T08:24:44.438Z,2.88
2023-03-16T08:28:12.941Z,2.83
2023-03-16T08:31:43.479Z,2.87
2023-03-16T08:35:20.980Z,2.99
2023-03-16T08:39:03.796Z,3.11
2023-03-16T08:42:35.205Z,3.22
2023-03-16T08:46:04.173Z,3.25
2023-03-16T08:49:38.562Z,3.27
2023-03-16T08:53:09.744Z,3.32
2023-03-16T08:56:37.398Z,3.43
2023-03-16T09:00:14.479Z,3.52
2023-03-16T09:03:42.331Z,3.65
2023-03-16T09:07:10.191Z,3.75
2023-03-16T09:10:38.211Z,3.85
2023-03-16T09:14:05.024Z,3.91
2023-03-16T09:17:31.936Z,3.93
2023-03-16T09:21:01.021Z,3.94
2023-03-16T09:24:28.445Z,3.98
2023-03-16T09:27:55.987Z,4.00
2023-03-16T09:31:23.124Z,4.07
2023-03-16T09:34:49.887Z,4.13
2023-03-16T09:38:16.224Z,4.16
2023-03-16T09:41:50.047Z,4.22
2023-03-16T09:45:17.379Z,4.30
2023-03-16T09:48:44.496Z,4.33
2023-03-16T09:52:22.882Z,4.40
2023-03-16T09:55:54.787Z,4.44
2023-03-16T09:59:22.839Z,4.46
2023-03-16T10:03:04.140Z,4.52
2023-03-16T10:06:31.894Z,4.65
2023-03-16T10:10:05.836Z,4.70
2023-03-16T10:13:39.438Z,4.75
2023-03-16T10:17:11.211Z,4.79
2023-03-16T10:20:38.145Z,4.77
2023-03-16T10:24:06.377Z,4.72
2023-03-16T10:27:36.812Z,4.70
2023-03-16T10:31:05.117Z,4.66
2023-03-16T10:34:32.546Z,4.62
2023-03-16T10:38:00.286Z,4.66
2023-03-16T10:41:32.556Z,4.76
2023-03-16T10:45:03.290Z,4.86
2023-03-16T10:48:34.259Z,4.97
2023-03-16T10:52:08.075Z,5.08
2023-03-16T10:55:45.983Z,5.20
2023-03-16T10:59:32.279Z,5.35
2023-03-16T11:03:01.373Z,5.44
2023-03-16T11:06:30.952Z,5.47
2023-03-16T11:10:00.002Z,5.44
2023-03-16T11:13:34.140Z,5.50
2023-03-16T11:17:09.884Z,5.53
2023-03-16T11:20:38.900Z,5.50
2023-03-16T11:24:12.802Z,5.48
2023-03-16T11:27:45.022Z,5.49
2023-03-16T11:31:20.571Z,5.53
2023-03-16T11:34:49.014Z,5.65
2023-03-16T11:38:20.381Z,5.73
2023-03-16T11:42:01.465Z,5.78
2023-03-16T11:45:37.908Z,5.81
2023-03-16T11:49:34.127Z,5.88
2023-03-16T11:53:09.182Z,5.91
2023-03-16T11:56:40.781Z,5.89
2023-03-16T12:00:21.925Z,5.87
2023-03-16T12:04:16.465Z,5.88
2023-03-16T12:07:58.129Z,6.01
2023-03-16T12:11:28.917Z,6.10
2023-03-16T12:15:05.508Z,6.16
2023-03-16T12:18:43.903Z,6.23
2023-03-16T12:22:21.806Z,6.30
2023-03-16T12:25:50.736Z,6.28
2023-03-16T12:29:32.606Z,6.23
2023-03-16T12:33:04.448Z,6.16
2023-03-16T12:36:53.071Z,6.13
2023-03-16T12:40:35.313Z,6.13
2023-03-16T12:44:21.267Z,6.12
2023-03-16T12:47:53.692Z,6.11
2023-03-16T12:51:20.092Z,6.10
2023-03-16T12:54:53.455Z,6.09
2023-03-16T12:58:20.107Z,6.09
2023-03-16T13:01:46.285Z,6.07
2023-03-16T13:05:13.201Z,6.09
2023-03-16T13:08:46.364Z,6.11
2023-03-16T13:12:26.338Z,6.12
2023-03-16T13:16:00.201Z,6.12
2023-03-16T13:19:29.887Z,6.08
2023-03-16T13:23:09.076Z,6.07
2023-03-16T13:26:41.059Z,6.08
2023-03-16T13:30:18.588Z,6.09
2023-03-16T13:33:43.813Z,6.05
2023-03-16T13:37:17.263Z,6.01
2023-03-16T13:40:49.101Z,6.00
2023-03-16T13:44:17.537Z,5.99
2023-03-16T13:47:44.844Z,6.06
2023-03-16T13:51:16.187Z,6.12
2023-03-16T13:54:42.104Z,6.17
2023-03-16T13:58:08.196Z,6.17
2023-03-16T14:01:33.612Z,6.23
2023-03-16T14:04:58.923Z,6.32
2023-03-16T14:08:24.916Z,6.43
2023-03-16T14:11:50.037Z,6.63
2023-03-16T14:15:15.066Z,6.75
2023-03-16T14:18:42.391Z,6.84
2023-03-16T14:22:07.136Z,6.93
2023-03-16T14:25:32.458Z,7.00
2023-03-16T14:28:58.683Z,7.05
2023-03-16T14:32:28.546Z,7.24
2023-03-16T14:35:56.464Z,7.51
2023-03-16T14:39:23.875Z,7.61
2023-03-16T14:42:48.946Z,7.74
2023-03-16T14:46:15.510Z,7.98
2023-03-16T14:49:43.213Z,8.32
2023-03-16T14:53:08.280Z,8.50
2023-03-16T14:56:37.655Z,8.47
2023-03-16T15:00:02.404Z,8.40
2023-03-16T15:03:33.367Z,8.33
2023-03-16T15:06:58.808Z,8.23
2023-03-16T15:10:24.996Z,8.13
2023-03-16T15:14:04.539Z,8.07
2023-03-16T15:17:29.861Z,8.01
2023-03-16T15:20:55.640Z,7.96
2023-03-16T15:24:21.155Z,7.94
2023-03-16T15:27:47.354Z,7.94
2023-03-16T15:31:14.293Z,7.88
2023-03-16T15:34:39.494Z,7.80
2023-03-16T15:38:07.191Z,7.72
2023-03-16T15:41:38.288Z,7.60
2023-03-16T15:45:17.753Z,7.50
2023-03-16T15:48:44.665Z,7.45
2023-03-16T15:52:19.543Z,7.39
2023-03-16T15:55:47.904Z,7.29
2023-03-16T15:59:17.122Z,7.26
2023-03-16T16:02:42.315Z,7.23
2023-03-16T16:06:12.351Z,7.19
2023-03-16T16:09:38.792Z,7.16
2023-03-16T16:13:04.359Z,7.11
2023-03-16T16:16:33.358Z,7.03
2023-03-16T16:19:59.972Z,6.95
2023-03-16T16:23:25.276Z,6.87
2023-03-16T16:26:54.904Z,6.77
2023-03-16T16:30:22.812Z,6.65
2023-03-16T16:33:47.887Z,6.56
2023-03-16T16:37:12.864Z,6.46
2023-03-16T16:40:45.935Z,6.37
2023-03-16T16:44:17.364Z,6.31
2023-03-16T16:47:42.796Z,6.23
2023-03-16T16:51:09.916Z,6.14
2023-03-16T16:54:37.257Z,6.04
2023-03-16T16:58:05.975Z,5.93
2023-03-16T17:01:34.806Z,5.83
2023-03-16T17:05:00.159Z,5.71
2023-03-16T17:08:25.855Z,5.61
2023-03-16T17:11:51.703Z,5.50
2023-03-16T17:15:30.559Z,5.36
2023-03-16T17:18:56.493Z,5.23
2023-03-16T17:22:25.875Z,5.10
2023-03-16T17:25:50.936Z,4.99
2023-03-16T17:29:21.291Z,4.87
2023-03-16T17:32:46.313Z,4.74
2023-03-16T17:36:14.985Z,4.60
2023-03-16T17:39:40.617Z,4.44
2023-03-16T17:43:07.577Z,4.32
2023-03-16T17:46:32.682Z,4.19
2023-03-16T17:49:57.754Z,4.05
2023-03-16T17:53:23.730Z,3.91
2023-03-16T17:56:51.383Z,3.76
2023-03-16T18:00:21.844Z,3.61
2023-03-16T18:03:46.521Z,3.48
2023-03-16T18:07:14.913Z,3.36
2023-03-16T18:10:40.432Z,3.26
2023-03-16T18:14:06.408Z,3.15
2023-03-16T18:17:32.605Z,3.01
2023-03-16T18:21:00.757Z,2.90
2023-03-16T18:24:27.081Z,2.79
2023-03-16T18:27:51.774Z,2.70
2023-03-16T18:31:21.650Z,2.60
2023-03-16T18:34:47.798Z,2.49
2023-03-16T18:38:17.289Z,2.38
2023-03-16T18:41:42.078Z,2.28
2023-03-16T18:45:07.975Z,2.20
2023-03-16T18:48:35.061Z,2.10
2023-03-16T18:52:00.156Z,2.03
2023-03-16T18:55:27.472Z,1.96
2023-03-16T18:58:54.731Z,1.88
2023-03-16T19:02:28.276Z,1.78
2023-03-16T19:05:54.044Z,1.68
2023-03-16T19:09:21.239Z,1.61
2023-03-16T19:12:46.765Z,1.56
2023-03-16T19:16:17.064Z,1.50
2023-03-16T19:19:43.148Z,1.46
2023-03-16T19:23:10.516Z,1.44
2023-03-16T19:26:37.618Z,1.42
2023-03-16T19:30:04.745Z,1.41
2023-03-16T19:33:34.390Z,1.41
2023-03-16T19:37:02.937Z,1.44
2023-03-16T19:40:31.864Z,1.48
2023-03-16T19:43:58.391Z,1.55
2023-03-16T19:47:27.795Z,1.59
2023-03-16T19:50:55.776Z,1.58
2023-03-16T19:54:24.190Z,1.53
2023-03-16T19:57:50.808Z,1.53
2023-03-16T20:01:20.633Z,1.53
2023-03-16T20:04:46.771Z,1.51
2023-03-16T20:08:21.987Z,1.48
2023-03-16T20:11:49.107Z,1.43
2023-03-16T20:15:18.111Z,1.36
2023-03-16T20:18:44.152Z,1.28
2023-03-16T20:22:12.364Z,1.21
2023-03-16T20:25:37.449Z,1.16
2023-03-16T20:29:02.508Z,1.10
2023-03-16T20:32:32.326Z,1.07
2023-03-16T20:35:58.144Z,1.03
2023-03-16T20:39:23.030Z,0.96
2023-03-16T20:42:48.764Z,0.92
2023-03-16T20:46:17.652Z,0.88
2023-03-16T20:49:44.421Z,0.84
2023-03-16T20:53:10.492Z,0.82
2023-03-16T20:56:36.538Z,0.80
2023-03-16T21:00:05.676Z,0.77
2023-03-16T21:03:34.763Z,0.74
2023-03-16T21:07:01.196Z,0.72
2023-03-16T21:10:28.489Z,0.69
2023-03-16T21:13:55.138Z,0.65
2023-03-16T21:17:25.260Z,0.62
2023-03-16T21:20:51.986Z,0.60
2023-03-16T21:24:17.094Z,0.54
2023-03-16T21:27:42.255Z,0.52
2023-03-16T21:31:08.657Z,0.48
2023-03-16T21:34:37.337Z,0.47
2023-03-16T21:38:03.276Z,0.45
2023-03-16T21:41:29.075Z,0.45
2023-03-16T21:44:54.513Z,0.45
2023-03-16T21:48:21.660Z,0.44
2023-03-16T21:51:46.975Z,0.42
2023-03-16T21:55:23.707Z,0.41
2023-03-16T21:58:48.970Z,0.41
2023-03-16T22:02:19.976Z,0.40
2023-03-16T22:05:46.106Z,0.43
2023-03-16T22:09:17.912Z,0.49
2023-03-16T22:12:43.118Z,0.55
2023-03-16T22:16:15.329Z,0.61
2023-03-16T22:19:40.450Z,0.68
2023-03-16T22:23:05.265Z,0.74
2023-03-16T22:26:31.145Z,0.79
2023-03-16T22:29:56.139Z,0.83
2023-03-16T22:33:22.870Z,0.86
2023-03-16T22:36:50.622Z,0.90
2023-03-16T22:40:18.636Z,0.88
2023-03-16T22:43:45.494Z,0.86
2023-03-16T22:47:21.684Z,0.83
2023-03-16T22:50:47.189Z,0.83
2023-03-16T22:54:16.537Z,0.81
2023-03-16T22:57:42.225Z,0.80
2023-03-16T23:01:15.611Z,0.75
2023-03-16T23:04:40.770Z,0.74
2023-03-16T23:08:14.771Z,0.71
2023-03-16T23:11:40.104Z,0.70
2023-03-16T23:15:11.115Z,0.67
2023-03-16T23:18:37.064Z,0.65
2023-03-16T23:22:05.856Z,0.65
2023-03-16T23:25:31.628Z,0.65
2023-03-16T23:28:57.705Z,0.66
2023-03-16T23:32:23.212Z,0.68
2023-03-16T23:35:48.605Z,0.68
2023-03-16T23:39:14.540Z,0.69
2023-03-16T23:42:39.603Z,0.71
2023-03-16T23:46:05.466Z,0.74
2023-03-16T23:49:33.176Z,0.77
2023-03-16T23:52:59.385Z,0.79
2023-03-16T23:56:24.156Z,0.83
2023-03-16T23:59:51.358Z,0.87
